Euskal Oiloa Chicken Forum

A place to find out more and share what you know about this awesome rare poultry breed! **NOTE: Those who wish to register as a new member on the forum are asked to email eochickenforum@gmail.com and an Administrator will gladly help you join the forum!

You are not logged in.

Adverts

Adverts

  • Index 
  • » Hatching & Incubators

Hatching & Incubators

Topic Replies Views Last post
Day 14 candling by NaturesPace
7 1378 2012-01-23 00:19:54 by Susan
1 533 2012-01-20 02:58:21 by skeffling lavender farm
imprinting by NaturesPace
13 2602 2012-01-18 22:59:23 by nuthatch333
First Incubatees by Amblecroft
4 1067 2012-01-18 19:23:11 by Amblecroft
Day 8 candling by NaturesPace
3 868 2012-01-16 01:26:02 by skeffling lavender farm
6 1960 2012-01-08 19:26:54 by Flat Rock Farm
humidity by NaturesPace
7 1819 2012-01-08 02:12:45 by skeffling lavender farm
5 1156 2011-12-26 23:30:27 by cj's coop
December 15 hatch by pops coops
8 1532 2011-12-16 21:00:07 by Flat Rock Farm
7 1433 2011-12-14 01:42:27 by Susan
8 1769 2011-12-13 23:03:22 by Lisa
17 3220 2011-12-11 05:18:09 by skeffling lavender farm
Round Two by Maggiesdad
14 2993 2011-12-10 16:32:46 by Island Girl
Not EOs.... by Susan
7 1497 2011-12-10 14:54:07 by Susan
11 2327 2011-12-10 13:08:07 by Maggiesdad
5 1120 2011-12-09 04:06:04 by pops coops
25 4966 2011-12-06 21:29:47 by pops coops
5 1247 2011-12-02 13:20:10 by poplar girl
2 648 2011-11-29 21:40:00 by Susan
Batch #1 and #2 by Island Girl  [ 1 2 ]
44 7625 2011-11-28 00:47:35 by Lisa
23 4138 2011-11-27 17:20:05 by Island Girl
8 1715 2011-11-25 03:37:52 by Island Girl
Day 18 for batch #2 by Island Girl
13 2729 2011-11-24 03:21:45 by poplar girl
Maggie's chickchart by Maggiesdad  [ 1 2 3 4 ]
79 14299 2011-11-20 21:55:51 by poplar girl
10 4371 2011-11-19 04:16:54 by skeffling lavender farm
10 1788 2011-11-18 13:35:41 by skeffling lavender farm
Incubator temp up by Island Girl
3 805 2011-11-18 00:06:42 by poplar girl
WHAT?!!! by Maggiesdad
7 1509 2011-11-17 12:34:08 by poplar girl
15 2548 2011-11-13 03:39:00 by skeffling lavender farm
10 2819 2011-11-09 02:08:37 by skeffling lavender farm
  • Index 
  • » Hatching & Incubators

Adverts

Board footer

Powered by FluxBB
Hosted by PunBB-Hosting